sensor_id;sensor_type;location;lat;lon;timestamp;temperature;humidity
3348;DHT22;1687;49.540;8.574;2023-07-08T00:00:52;26.70;34.90
3348;DHT22;1687;49.540;8.574;2023-07-08T00:03:19;26.70;34.90
3348;DHT22;1687;49.540;8.574;2023-07-08T00:05:52;26.70;34.80
3348;DHT22;1687;49.540;8.574;2023-07-08T00:08:20;26.60;34.80
3348;DHT22;1687;49.540;8.574;2023-07-08T00:10:46;26.60;34.80
3348;DHT22;1687;49.540;8.574;2023-07-08T00:13:12;26.60;34.80
3348;DHT22;1687;49.540;8.574;2023-07-08T00:15:39;26.50;34.70
3348;DHT22;1687;49.540;8.574;2023-07-08T00:18:16;26.50;34.80
3348;DHT22;1687;49.540;8.574;2023-07-08T00:20:49;26.40;34.80
3348;DHT22;1687;49.540;8.574;2023-07-08T00:23:15;26.30;34.80
3348;DHT22;1687;49.540;8.574;2023-07-08T00:25:41;26.20;34.80
3348;DHT22;1687;49.540;8.574;2023-07-08T00:28:18;26.20;34.90
3348;DHT22;1687;49.540;8.574;2023-07-08T00:30:45;26.10;34.90
3348;DHT22;1687;49.540;8.574;2023-07-08T00:33:11;26.00;34.90
3348;DHT22;1687;49.540;8.574;2023-07-08T00:35:44;25.90;35.00
3348;DHT22;1687;49.540;8.574;2023-07-08T00:38:25;25.90;35.10
3348;DHT22;1687;49.540;8.574;2023-07-08T00:41:18;25.80;35.20
3348;DHT22;1687;49.540;8.574;2023-07-08T00:43:52;25.80;35.30
3348;DHT22;1687;49.540;8.574;2023-07-08T00:46:33;25.80;35.40
3348;DHT22;1687;49.540;8.574;2023-07-08T00:49:26;25.70;35.40
3348;DHT22;1687;49.540;8.574;2023-07-08T00:54:54;25.70;35.50
3348;DHT22;1687;49.540;8.574;2023-07-08T00:57:22;25.60;35.50
3348;DHT22;1687;49.540;8.574;2023-07-08T01:00:06;25.60;35.50
3348;DHT22;1687;49.540;8.574;2023-07-08T01:02:38;25.60;35.60
3348;DHT22;1687;49.540;8.574;2023-07-08T01:05:14;25.50;35.60
3348;DHT22;1687;49.540;8.574;2023-07-08T01:07:45;25.40;35.70
3348;DHT22;1687;49.540;8.574;2023-07-08T01:10:20;25.40;35.80
3348;DHT22;1687;49.540;8.574;2023-07-08T01:12:53;25.20;35.70
3348;DHT22;1687;49.540;8.574;2023-07-08T01:15:23;25.20;35.90
3348;DHT22;1687;49.540;8.574;2023-07-08T01:17:50;25.10;36.00
3348;DHT22;1687;49.540;8.574;2023-07-08T01:20:19;25.00;36.20
3348;DHT22;1687;49.540;8.574;2023-07-08T01:22:45;25.00;36.20
3348;DHT22;1687;49.540;8.574;2023-07-08T01:25:11;24.90;36.20
3348;DHT22;1687;49.540;8.574;2023-07-08T01:27:42;24.80;36.50
3348;DHT22;1687;49.540;8.574;2023-07-08T01:30:15;24.70;36.60
3348;DHT22;1687;49.540;8.574;2023-07-08T01:32:47;24.50;36.70
3348;DHT22;1687;49.540;8.574;2023-07-08T01:35:15;24.30;37.00
3348;DHT22;1687;49.540;8.574;2023-07-08T01:37:57;24.00;37.00
3348;DHT22;1687;49.540;8.574;2023-07-08T01:40:29;23.60;37.50
3348;DHT22;1687;49.540;8.574;2023-07-08T01:43:03;23.30;37.90
3348;DHT22;1687;49.540;8.574;2023-07-08T01:45:33;23.20;38.40
3348;DHT22;1687;49.540;8.574;2023-07-08T01:48:05;23.10;38.60
3348;DHT22;1687;49.540;8.574;2023-07-08T01:50:35;23.10;38.70
3348;DHT22;1687;49.540;8.574;2023-07-08T01:53:08;23.00;38.80
3348;DHT22;1687;49.540;8.574;2023-07-08T01:55:36;22.80;39.00
3348;DHT22;1687;49.540;8.574;2023-07-08T01:58:02;22.70;39.20
3348;DHT22;1687;49.540;8.574;2023-07-08T02:00:28;22.60;40.10
3348;DHT22;1687;49.540;8.574;2023-07-08T02:02:53;22.60;39.90
3348;DHT22;1687;49.540;8.574;2023-07-08T02:05:19;22.50;39.90
3348;DHT22;1687;49.540;8.574;2023-07-08T02:07:44;22.50;40.10
3348;DHT22;1687;49.540;8.574;2023-07-08T02:10:10;22.40;40.30
3348;DHT22;1687;49.540;8.574;2023-07-08T02:12:36;22.40;40.60
3348;DHT22;1687;49.540;8.574;2023-07-08T02:15:03;22.40;40.60
3348;DHT22;1687;49.540;8.574;2023-07-08T02:17:29;22.30;40.80
3348;DHT22;1687;49.540;8.574;2023-07-08T02:19:56;22.20;41.20
3348;DHT22;1687;49.540;8.574;2023-07-08T02:22:22;22.10;41.40
3348;DHT22;1687;49.540;8.574;2023-07-08T02:24:48;21.90;41.70
3348;DHT22;1687;49.540;8.574;2023-07-08T02:27:14;21.90;42.00
3348;DHT22;1687;49.540;8.574;2023-07-08T02:29:40;21.80;42.20
3348;DHT22;1687;49.540;8.574;2023-07-08T02:32:06;21.80;42.50
3348;DHT22;1687;49.540;8.574;2023-07-08T02:34:35;21.80;42.70
3348;DHT22;1687;49.540;8.574;2023-07-08T02:37:01;21.80;42.90
3348;DHT22;1687;49.540;8.574;2023-07-08T02:39:27;21.80;43.00
3348;DHT22;1687;49.540;8.574;2023-07-08T02:41:53;21.70;43.20
3348;DHT22;1687;49.540;8.574;2023-07-08T02:44:19;21.60;43.40
3348;DHT22;1687;49.540;8.574;2023-07-08T02:46:44;21.50;43.50
3348;DHT22;1687;49.540;8.574;2023-07-08T02:49:10;21.50;43.70
3348;DHT22;1687;49.540;8.574;2023-07-08T02:51:36;21.40;43.90
3348;DHT22;1687;49.540;8.574;2023-07-08T02:54:01;21.40;44.10
3348;DHT22;1687;49.540;8.574;2023-07-08T02:56:27;21.30;44.30
3348;DHT22;1687;49.540;8.574;2023-07-08T02:58:53;21.20;45.20
3348;DHT22;1687;49.540;8.574;2023-07-08T03:01:19;21.20;44.80
3348;DHT22;1687;49.540;8.574;2023-07-08T03:03:45;21.20;45.00
3348;DHT22;1687;49.540;8.574;2023-07-08T03:06:11;21.10;45.10
3348;DHT22;1687;49.540;8.574;2023-07-08T03:08:37;21.10;45.50
3348;DHT22;1687;49.540;8.574;2023-07-08T03:11:04;21.20;45.70
3348;DHT22;1687;49.540;8.574;2023-07-08T03:13:32;21.20;45.70
3348;DHT22;1687;49.540;8.574;2023-07-08T03:16:00;21.20;45.90
3348;DHT22;1687;49.540;8.574;2023-07-08T03:18:26;21.20;46.20
3348;DHT22;1687;49.540;8.574;2023-07-08T03:20:54;21.20;46.30
3348;DHT22;1687;49.540;8.574;2023-07-08T03:23:22;21.20;46.80
3348;DHT22;1687;49.540;8.574;2023-07-08T03:25:49;21.10;46.30
3348;DHT22;1687;49.540;8.574;2023-07-08T03:28:14;21.00;46.60
3348;DHT22;1687;49.540;8.574;2023-07-08T03:30:41;21.10;46.70
3348;DHT22;1687;49.540;8.574;2023-07-08T03:33:07;21.00;46.90
3348;DHT22;1687;49.540;8.574;2023-07-08T03:35:33;20.90;47.00
3348;DHT22;1687;49.540;8.574;2023-07-08T03:37:59;20.90;47.10
3348;DHT22;1687;49.540;8.574;2023-07-08T03:40:25;20.80;47.30
3348;DHT22;1687;49.540;8.574;2023-07-08T03:42:51;20.80;47.60
3348;DHT22;1687;49.540;8.574;2023-07-08T03:45:16;20.70;47.70
3348;DHT22;1687;49.540;8.574;2023-07-08T03:47:42;20.80;47.90
3348;DHT22;1687;49.540;8.574;2023-07-08T03:50:20;20.70;48.00
3348;DHT22;1687;49.540;8.574;2023-07-08T03:52:48;20.80;48.30
3348;DHT22;1687;49.540;8.574;2023-07-08T03:55:15;20.80;48.40
3348;DHT22;1687;49.540;8.574;2023-07-08T03:57:41;20.90;48.60
3348;DHT22;1687;49.540;8.574;2023-07-08T04:00:07;20.90;48.40
3348;DHT22;1687;49.540;8.574;2023-07-08T04:02:44;20.80;48.40
3348;DHT22;1687;49.540;8.574;2023-07-08T04:05:21;20.80;48.50
3348;DHT22;1687;49.540;8.574;2023-07-08T04:07:48;20.80;49.30
3348;DHT22;1687;49.540;8.574;2023-07-08T04:10:15;20.80;48.70
3348;DHT22;1687;49.540;8.574;2023-07-08T04:12:42;20.80;48.80
3348;DHT22;1687;49.540;8.574;2023-07-08T04:15:09;20.60;48.80
3348;DHT22;1687;49.540;8.574;2023-07-08T04:17:43;20.70;49.10
3348;DHT22;1687;49.540;8.574;2023-07-08T04:20:14;20.70;49.20
3348;DHT22;1687;49.540;8.574;2023-07-08T04:22:41;20.60;49.10
3348;DHT22;1687;49.540;8.574;2023-07-08T04:25:06;20.60;49.20
3348;DHT22;1687;49.540;8.574;2023-07-08T04:27:32;20.50;49.30
3348;DHT22;1687;49.540;8.574;2023-07-08T04:29:58;20.60;49.70
3348;DHT22;1687;49.540;8.574;2023-07-08T04:32:24;20.70;49.60
3348;DHT22;1687;49.540;8.574;2023-07-08T04:34:53;20.80;49.70
3348;DHT22;1687;49.540;8.574;2023-07-08T04:37:19;20.90;49.80
3348;DHT22;1687;49.540;8.574;2023-07-08T04:39:46;20.90;49.70
3348;DHT22;1687;49.540;8.574;2023-07-08T04:42:13;21.00;50.00
3348;DHT22;1687;49.540;8.574;2023-07-08T04:44:41;21.10;50.00
3348;DHT22;1687;49.540;8.574;2023-07-08T04:47:07;21.20;50.10
3348;DHT22;1687;49.540;8.574;2023-07-08T04:49:35;21.40;50.10
3348;DHT22;1687;49.540;8.574;2023-07-08T04:52:01;21.50;50.00
3348;DHT22;1687;49.540;8.574;2023-07-08T04:54:28;21.60;50.10
3348;DHT22;1687;49.540;8.574;2023-07-08T04:56:54;21.70;50.20
3348;DHT22;1687;49.540;8.574;2023-07-08T04:59:24;22.00;50.30
3348;DHT22;1687;49.540;8.574;2023-07-08T05:01:51;22.10;50.30
3348;DHT22;1687;49.540;8.574;2023-07-08T05:04:21;22.30;50.80
3348;DHT22;1687;49.540;8.574;2023-07-08T05:06:48;22.20;50.00
3348;DHT22;1687;49.540;8.574;2023-07-08T05:09:14;22.30;50.10
3348;DHT22;1687;49.540;8.574;2023-07-08T05:11:39;22.40;50.20
3348;DHT22;1687;49.540;8.574;2023-07-08T05:14:05;22.40;50.10
3348;DHT22;1687;49.540;8.574;2023-07-08T05:16:33;22.40;50.20
3348;DHT22;1687;49.540;8.574;2023-07-08T05:19:00;22.30;50.10
3348;DHT22;1687;49.540;8.574;2023-07-08T05:21:25;22.30;50.20
3348;DHT22;1687;49.540;8.574;2023-07-08T05:23:52;22.30;50.30
3348;DHT22;1687;49.540;8.574;2023-07-08T05:26:19;22.30;50.40
3348;DHT22;1687;49.540;8.574;2023-07-08T05:28:45;22.40;50.60
3348;DHT22;1687;49.540;8.574;2023-07-08T05:31:11;22.40;50.60
3348;DHT22;1687;49.540;8.574;2023-07-08T05:33:36;22.40;50.90
3348;DHT22;1687;49.540;8.574;2023-07-08T05:36:02;22.40;50.90
3348;DHT22;1687;49.540;8.574;2023-07-08T05:38:28;22.50;51.10
3348;DHT22;1687;49.540;8.574;2023-07-08T05:40:55;22.60;51.30
3348;DHT22;1687;49.540;8.574;2023-07-08T05:43:22;22.80;51.30
3348;DHT22;1687;49.540;8.574;2023-07-08T05:45:48;23.00;51.30
3348;DHT22;1687;49.540;8.574;2023-07-08T05:48:14;23.10;51.30
3348;DHT22;1687;49.540;8.574;2023-07-08T05:50:40;23.20;51.20
3348;DHT22;1687;49.540;8.574;2023-07-08T05:53:08;23.20;51.30
3348;DHT22;1687;49.540;8.574;2023-07-08T05:55:34;23.30;51.40
3348;DHT22;1687;49.540;8.574;2023-07-08T05:58:00;23.50;51.40
3348;DHT22;1687;49.540;8.574;2023-07-08T06:00:26;23.70;51.50
3348;DHT22;1687;49.540;8.574;2023-07-08T06:02:52;23.90;51.40
3348;DHT22;1687;49.540;8.574;2023-07-08T06:05:18;24.00;51.20
3348;DHT22;1687;49.540;8.574;2023-07-08T06:07:43;24.00;51.10
3348;DHT22;1687;49.540;8.574;2023-07-08T06:10:09;24.10;51.20
3348;DHT22;1687;49.540;8.574;2023-07-08T06:12:35;24.10;51.10
3348;DHT22;1687;49.540;8.574;2023-07-08T06:15:01;24.10;50.90
3348;DHT22;1687;49.540;8.574;2023-07-08T06:17:27;24.10;50.80
3348;DHT22;1687;49.540;8.574;2023-07-08T06:19:53;24.10;50.90
3348;DHT22;1687;49.540;8.574;2023-07-08T06:22:18;24.20;50.80
3348;DHT22;1687;49.540;8.574;2023-07-08T06:24:44;24.30;50.80
3348;DHT22;1687;49.540;8.574;2023-07-08T06:27:10;24.40;50.80
3348;DHT22;1687;49.540;8.574;2023-07-08T06:29:35;24.40;50.80
3348;DHT22;1687;49.540;8.574;2023-07-08T06:32:02;24.60;50.90
3348;DHT22;1687;49.540;8.574;2023-07-08T06:34:27;24.70;50.80
3348;DHT22;1687;49.540;8.574;2023-07-08T06:36:53;24.80;50.90
3348;DHT22;1687;49.540;8.574;2023-07-08T06:39:19;24.90;51.00
3348;DHT22;1687;49.540;8.574;2023-07-08T06:41:45;24.90;50.80
3348;DHT22;1687;49.540;8.574;2023-07-08T06:44:11;25.00;51.00
3348;DHT22;1687;49.540;8.574;2023-07-08T06:46:37;25.00;51.00
3348;DHT22;1687;49.540;8.574;2023-07-08T06:49:02;25.00;50.80
3348;DHT22;1687;49.540;8.574;2023-07-08T06:51:29;25.00;51.00
3348;DHT22;1687;49.540;8.574;2023-07-08T06:53:55;24.90;51.60
3348;DHT22;1687;49.540;8.574;2023-07-08T06:56:20;24.80;51.00
3348;DHT22;1687;49.540;8.574;2023-07-08T06:58:46;24.80;51.10
3348;DHT22;1687;49.540;8.574;2023-07-08T07:01:12;24.80;50.90
3348;DHT22;1687;49.540;8.574;2023-07-08T07:03:39;24.80;50.80
3348;DHT22;1687;49.540;8.574;2023-07-08T07:06:06;24.80;50.60
3348;DHT22;1687;49.540;8.574;2023-07-08T07:08:31;24.80;50.40
3348;DHT22;1687;49.540;8.574;2023-07-08T07:10:57;24.80;50.30
3348;DHT22;1687;49.540;8.574;2023-07-08T07:13:23;24.80;50.30
3348;DHT22;1687;49.540;8.574;2023-07-08T07:15:49;24.80;50.10
3348;DHT22;1687;49.540;8.574;2023-07-08T07:18:15;24.80;50.10
3348;DHT22;1687;49.540;8.574;2023-07-08T07:20:50;24.80;50.00
3348;DHT22;1687;49.540;8.574;2023-07-08T07:23:18;24.90;50.00
3348;DHT22;1687;49.540;8.574;2023-07-08T07:25:45;25.00;50.00
3348;DHT22;1687;49.540;8.574;2023-07-08T07:28:13;24.90;50.00
3348;DHT22;1687;49.540;8.574;2023-07-08T07:30:39;24.90;50.10
3348;DHT22;1687;49.540;8.574;2023-07-08T07:33:05;25.00;50.10
3348;DHT22;1687;49.540;8.574;2023-07-08T07:35:30;25.10;50.20
3348;DHT22;1687;49.540;8.574;2023-07-08T07:37:56;25.30;50.20
3348;DHT22;1687;49.540;8.574;2023-07-08T07:40:22;25.60;50.20
3348;DHT22;1687;49.540;8.574;2023-07-08T07:42:48;25.70;50.10
3348;DHT22;1687;49.540;8.574;2023-07-08T07:45:14;25.80;50.00
3348;DHT22;1687;49.540;8.574;2023-07-08T07:47:40;26.00;49.90
3348;DHT22;1687;49.540;8.574;2023-07-08T07:50:08;26.20;49.70
3348;DHT22;1687;49.540;8.574;2023-07-08T07:52:35;26.50;49.60
3348;DHT22;1687;49.540;8.574;2023-07-08T07:55:01;26.90;49.30
3348;DHT22;1687;49.540;8.574;2023-07-08T07:57:27;27.10;49.30
3348;DHT22;1687;49.540;8.574;2023-07-08T07:59:53;27.40;49.30
3348;DHT22;1687;49.540;8.574;2023-07-08T08:02:19;27.70;49.00
3348;DHT22;1687;49.540;8.574;2023-07-08T08:04:45;27.90;49.00
3348;DHT22;1687;49.540;8.574;2023-07-08T08:07:11;28.10;48.80
3348;DHT22;1687;49.540;8.574;2023-07-08T08:09:37;28.20;48.50
3348;DHT22;1687;49.540;8.574;2023-07-08T08:12:03;28.20;48.30
3348;DHT22;1687;49.540;8.574;2023-07-08T08:14:30;28.20;48.20
3348;DHT22;1687;49.540;8.574;2023-07-08T08:16:55;28.10;48.10
3348;DHT22;1687;49.540;8.574;2023-07-08T08:19:21;28.10;48.10
3348;DHT22;1687;49.540;8.574;2023-07-08T08:21:48;28.10;48.00
3348;DHT22;1687;49.540;8.574;2023-07-08T08:24:13;28.10;48.10
3348;DHT22;1687;49.540;8.574;2023-07-08T08:26:39;27.80;47.80
3348;DHT22;1687;49.540;8.574;2023-07-08T08:29:05;27.60;48.00
3348;DHT22;1687;49.540;8.574;2023-07-08T08:31:30;27.50;48.20
3348;DHT22;1687;49.540;8.574;2023-07-08T08:33:57;27.50;48.30
3348;DHT22;1687;49.540;8.574;2023-07-08T08:36:22;27.60;48.70
3348;DHT22;1687;49.540;8.574;2023-07-08T08:38:48;27.80;48.50
3348;DHT22;1687;49.540;8.574;2023-07-08T08:41:19;28.00;48.50
3348;DHT22;1687;49.540;8.574;2023-07-08T08:43:48;28.20;48.50
3348;DHT22;1687;49.540;8.574;2023-07-08T08:49:56;28.50;48.40
3348;DHT22;1687;49.540;8.574;2023-07-08T08:52:23;28.50;48.20
3348;DHT22;1687;49.540;8.574;2023-07-08T08:54:49;28.50;48.40
3348;DHT22;1687;49.540;8.574;2023-07-08T08:57:36;28.50;48.30
3348;DHT22;1687;49.540;8.574;2023-07-08T09:00:09;28.60;48.60
3348;DHT22;1687;49.540;8.574;2023-07-08T09:02:42;28.70;48.50
3348;DHT22;1687;49.540;8.574;2023-07-08T09:05:11;28.80;48.50
3348;DHT22;1687;49.540;8.574;2023-07-08T09:08:18;29.00;48.50
3348;DHT22;1687;49.540;8.574;2023-07-08T09:10:58;29.10;48.30
3348;DHT22;1687;49.540;8.574;2023-07-08T09:13:35;29.20;48.30
3348;DHT22;1687;49.540;8.574;2023-07-08T09:16:51;29.30;48.10
3348;DHT22;1687;49.540;8.574;2023-07-08T09:19:32;29.30;48.10
3348;DHT22;1687;49.540;8.574;2023-07-08T09:22:21;29.30;48.00
3348;DHT22;1687;49.540;8.574;2023-07-08T09:24:59;29.30;48.00
3348;DHT22;1687;49.540;8.574;2023-07-08T09:27:28;29.40;48.10
3348;DHT22;1687;49.540;8.574;2023-07-08T09:29:55;29.50;48.10
3348;DHT22;1687;49.540;8.574;2023-07-08T09:32:27;29.60;48.10
3348;DHT22;1687;49.540;8.574;2023-07-08T09:35:05;29.70;47.90
3348;DHT22;1687;49.540;8.574;2023-07-08T09:37:37;29.80;48.00
3348;DHT22;1687;49.540;8.574;2023-07-08T09:40:17;29.90;47.80
3348;DHT22;1687;49.540;8.574;2023-07-08T09:42:49;29.90;47.80
3348;DHT22;1687;49.540;8.574;2023-07-08T09:45:20;29.90;47.90
3348;DHT22;1687;49.540;8.574;2023-07-08T09:47:53;29.90;47.70
3348;DHT22;1687;49.540;8.574;2023-07-08T09:50:26;29.90;47.70
3348;DHT22;1687;49.540;8.574;2023-07-08T09:52:56;29.80;47.50
3348;DHT22;1687;49.540;8.574;2023-07-08T09:55:23;29.80;47.60
3348;DHT22;1687;49.540;8.574;2023-07-08T09:57:52;29.80;47.60
3348;DHT22;1687;49.540;8.574;2023-07-08T10:00:32;29.90;47.70
3348;DHT22;1687;49.540;8.574;2023-07-08T10:03:04;30.20;47.70
3348;DHT22;1687;49.540;8.574;2023-07-08T10:05:39;30.40;47.70
3348;DHT22;1687;49.540;8.574;2023-07-08T10:08:20;30.60;47.50
3348;DHT22;1687;49.540;8.574;2023-07-08T10:11:02;30.80;47.50
3348;DHT22;1687;49.540;8.574;2023-07-08T10:13:39;30.80;47.20
3348;DHT22;1687;49.540;8.574;2023-07-08T10:18:52;30.70;47.10
3348;DHT22;1687;49.540;8.574;2023-07-08T10:24:22;31.00;47.30
3348;DHT22;1687;49.540;8.574;2023-07-08T10:27:37;31.00;47.20
3348;DHT22;1687;49.540;8.574;2023-07-08T10:30:23;31.00;47.10
3348;DHT22;1687;49.540;8.574;2023-07-08T10:33:04;31.00;47.10
3348;DHT22;1687;49.540;8.574;2023-07-08T10:38:39;31.00;47.00
3348;DHT22;1687;49.540;8.574;2023-07-08T10:41:24;31.00;46.90
3348;DHT22;1687;49.540;8.574;2023-07-08T10:44:58;31.10;46.90
3348;DHT22;1687;49.540;8.574;2023-07-08T10:48:16;31.10;46.80
3348;DHT22;1687;49.540;8.574;2023-07-08T10:56:16;31.20;46.50
3348;DHT22;1687;49.540;8.574;2023-07-08T11:02:15;31.20;46.60
3348;DHT22;1687;49.540;8.574;2023-07-08T11:07:52;31.40;46.50
3348;DHT22;1687;49.540;8.574;2023-07-08T11:10:36;31.50;46.40
3348;DHT22;1687;49.540;8.574;2023-07-08T11:13:12;31.40;46.30
3348;DHT22;1687;49.540;8.574;2023-07-08T11:16:07;31.40;46.40
3348;DHT22;1687;49.540;8.574;2023-07-08T11:18:56;31.40;46.30
3348;DHT22;1687;49.540;8.574;2023-07-08T11:21:49;31.50;46.40
3348;DHT22;1687;49.540;8.574;2023-07-08T11:24:34;31.50;46.20
3348;DHT22;1687;49.540;8.574;2023-07-08T11:27:29;31.50;46.30
3348;DHT22;1687;49.540;8.574;2023-07-08T11:29:59;31.50;46.30
3348;DHT22;1687;49.540;8.574;2023-07-08T11:32:30;31.70;46.30
3348;DHT22;1687;49.540;8.574;2023-07-08T11:34:57;31.80;46.20
3348;DHT22;1687;49.540;8.574;2023-07-08T11:37:25;31.90;46.10
3348;DHT22;1687;49.540;8.574;2023-07-08T11:42:41;32.00;45.80
3348;DHT22;1687;49.540;8.574;2023-07-08T11:47:47;31.80;45.60
3348;DHT22;1687;49.540;8.574;2023-07-08T11:50:28;31.90;45.70
3348;DHT22;1687;49.540;8.574;2023-07-08T11:58:24;32.00;45.30
3348;DHT22;1687;49.540;8.574;2023-07-08T12:03:54;32.10;45.40
3348;DHT22;1687;49.540;8.574;2023-07-08T12:08:54;32.30;44.90
3348;DHT22;1687;49.540;8.574;2023-07-08T12:11:27;32.40;44.80
3348;DHT22;1687;49.540;8.574;2023-07-08T12:13:58;32.40;44.70
3348;DHT22;1687;49.540;8.574;2023-07-08T12:16:26;32.40;44.50
3348;DHT22;1687;49.540;8.574;2023-07-08T12:18:54;32.40;44.40
3348;DHT22;1687;49.540;8.574;2023-07-08T12:21:22;32.40;44.30
3348;DHT22;1687;49.540;8.574;2023-07-08T12:23:49;32.50;44.20
3348;DHT22;1687;49.540;8.574;2023-07-08T12:26:15;32.40;43.80
3348;DHT22;1687;49.540;8.574;2023-07-08T12:28:42;32.30;43.70
3348;DHT22;1687;49.540;8.574;2023-07-08T12:31:22;32.40;43.60
3348;DHT22;1687;49.540;8.574;2023-07-08T12:33:50;32.40;43.40
3348;DHT22;1687;49.540;8.574;2023-07-08T12:36:22;32.30;43.30
3348;DHT22;1687;49.540;8.574;2023-07-08T12:38:55;32.50;43.40
3348;DHT22;1687;49.540;8.574;2023-07-08T12:41:29;32.50;43.30
3348;DHT22;1687;49.540;8.574;2023-07-08T12:43:58;32.70;43.50
3348;DHT22;1687;49.540;8.574;2023-07-08T12:46:25;32.90;43.30
3348;DHT22;1687;49.540;8.574;2023-07-08T12:48:50;33.00;43.10
3348;DHT22;1687;49.540;8.574;2023-07-08T12:51:24;33.10;43.00
3348;DHT22;1687;49.540;8.574;2023-07-08T12:53:52;33.20;43.00
3348;DHT22;1687;49.540;8.574;2023-07-08T12:56:21;33.30;43.00
3348;DHT22;1687;49.540;8.574;2023-07-08T12:58:54;33.30;42.90
3348;DHT22;1687;49.540;8.574;2023-07-08T13:01:26;33.20;42.90
3348;DHT22;1687;49.540;8.574;2023-07-08T13:03:59;33.30;42.90
3348;DHT22;1687;49.540;8.574;2023-07-08T13:06:31;33.40;42.90
3348;DHT22;1687;49.540;8.574;2023-07-08T13:09:23;33.40;42.60
3348;DHT22;1687;49.540;8.574;2023-07-08T13:11:56;33.50;42.70
3348;DHT22;1687;49.540;8.574;2023-07-08T13:14:24;33.50;42.50
3348;DHT22;1687;49.540;8.574;2023-07-08T13:16:50;33.50;42.20
3348;DHT22;1687;49.540;8.574;2023-07-08T13:19:16;33.50;42.20
3348;DHT22;1687;49.540;8.574;2023-07-08T13:21:42;33.50;42.20
3348;DHT22;1687;49.540;8.574;2023-07-08T13:24:09;33.60;42.10
3348;DHT22;1687;49.540;8.574;2023-07-08T13:26:36;33.90;42.10
3348;DHT22;1687;49.540;8.574;2023-07-08T13:29:14;34.10;42.00
3348;DHT22;1687;49.540;8.574;2023-07-08T13:31:43;34.40;41.90
3348;DHT22;1687;49.540;8.574;2023-07-08T13:34:19;34.80;41.90
3348;DHT22;1687;49.540;8.574;2023-07-08T13:36:49;35.20;41.90
3348;DHT22;1687;49.540;8.574;2023-07-08T13:39:36;35.90;41.80
3348;DHT22;1687;49.540;8.574;2023-07-08T13:42:03;37.10;41.80
3348;DHT22;1687;49.540;8.574;2023-07-08T13:44:29;38.30;41.40
3348;DHT22;1687;49.540;8.574;2023-07-08T13:46:56;39.30;40.70
3348;DHT22;1687;49.540;8.574;2023-07-08T13:49:40;40.00;39.80
3348;DHT22;1687;49.540;8.574;2023-07-08T13:52:18;40.60;38.90
3348;DHT22;1687;49.540;8.574;2023-07-08T13:55:01;41.50;38.50
3348;DHT22;1687;49.540;8.574;2023-07-08T13:57:39;42.60;38.20
3348;DHT22;1687;49.540;8.574;2023-07-08T14:00:06;43.60;37.10
3348;DHT22;1687;49.540;8.574;2023-07-08T14:02:34;43.80;36.10
3348;DHT22;1687;49.540;8.574;2023-07-08T14:05:01;43.80;35.50
3348;DHT22;1687;49.540;8.574;2023-07-08T14:07:31;43.80;34.90
3348;DHT22;1687;49.540;8.574;2023-07-08T14:09:58;44.00;34.70
3348;DHT22;1687;49.540;8.574;2023-07-08T14:12:24;44.60;35.00
3348;DHT22;1687;49.540;8.574;2023-07-08T14:14:50;45.70;34.50
3348;DHT22;1687;49.540;8.574;2023-07-08T14:17:22;46.00;33.60
3348;DHT22;1687;49.540;8.574;2023-07-08T14:19:50;46.10;33.30
3348;DHT22;1687;49.540;8.574;2023-07-08T14:22:27;46.80;33.10
3348;DHT22;1687;49.540;8.574;2023-07-08T14:24:55;46.90;32.30
3348;DHT22;1687;49.540;8.574;2023-07-08T14:27:21;47.30;32.50
3348;DHT22;1687;49.540;8.574;2023-07-08T14:29:50;48.10;32.40
3348;DHT22;1687;49.540;8.574;2023-07-08T14:32:22;48.80;31.80
3348;DHT22;1687;49.540;8.574;2023-07-08T14:34:54;49.30;31.30
3348;DHT22;1687;49.540;8.574;2023-07-08T14:37:21;49.80;31.00
3348;DHT22;1687;49.540;8.574;2023-07-08T14:39:47;50.40;30.90
3348;DHT22;1687;49.540;8.574;2023-07-08T14:42:15;51.40;30.70
3348;DHT22;1687;49.540;8.574;2023-07-08T14:44:48;52.00;30.30
3348;DHT22;1687;49.540;8.574;2023-07-08T14:47:16;52.40;29.60
3348;DHT22;1687;49.540;8.574;2023-07-08T14:49:43;52.70;29.20
3348;DHT22;1687;49.540;8.574;2023-07-08T14:52:09;52.80;28.70
3348;DHT22;1687;49.540;8.574;2023-07-08T14:54:35;53.00;28.40
3348;DHT22;1687;49.540;8.574;2023-07-08T14:57:02;53.10;28.00
3348;DHT22;1687;49.540;8.574;2023-07-08T14:59:31;52.70;27.50
3348;DHT22;1687;49.540;8.574;2023-07-08T15:01:59;52.20;27.90
3348;DHT22;1687;49.540;8.574;2023-07-08T15:04:26;52.70;27.80
3348;DHT22;1687;49.540;8.574;2023-07-08T15:06:53;52.60;26.90
3348;DHT22;1687;49.540;8.574;2023-07-08T15:09:20;51.60;26.70
3348;DHT22;1687;49.540;8.574;2023-07-08T15:11:45;51.40;26.70
3348;DHT22;1687;49.540;8.574;2023-07-08T15:14:20;51.40;26.80
3348;DHT22;1687;49.540;8.574;2023-07-08T15:16:48;52.00;26.50
3348;DHT22;1687;49.540;8.574;2023-07-08T15:19:15;51.80;26.10
3348;DHT22;1687;49.540;8.574;2023-07-08T15:21:41;51.80;26.20
3348;DHT22;1687;49.540;8.574;2023-07-08T15:24:09;52.20;26.20
3348;DHT22;1687;49.540;8.574;2023-07-08T15:26:43;52.40;25.70
3348;DHT22;1687;49.540;8.574;2023-07-08T15:29:15;51.80;25.30
3348;DHT22;1687;49.540;8.574;2023-07-08T15:31:44;50.70;25.00
3348;DHT22;1687;49.540;8.574;2023-07-08T15:34:18;50.60;25.50
3348;DHT22;1687;49.540;8.574;2023-07-08T15:36:46;51.00;25.10
3348;DHT22;1687;49.540;8.574;2023-07-08T15:39:12;50.80;25.00
3348;DHT22;1687;49.540;8.574;2023-07-08T15:41:41;51.10;25.20
3348;DHT22;1687;49.540;8.574;2023-07-08T15:44:12;52.00;25.30
3348;DHT22;1687;49.540;8.574;2023-07-08T15:46:48;52.20;24.40
3348;DHT22;1687;49.540;8.574;2023-07-08T15:49:24;50.60;24.30
3348;DHT22;1687;49.540;8.574;2023-07-08T15:51:52;50.60;24.70
3348;DHT22;1687;49.540;8.574;2023-07-08T15:54:18;51.00;24.60
3348;DHT22;1687;49.540;8.574;2023-07-08T15:56:46;50.80;24.50
3348;DHT22;1687;49.540;8.574;2023-07-08T15:59:15;50.90;24.40
3348;DHT22;1687;49.540;8.574;2023-07-08T16:01:43;50.30;24.10
3348;DHT22;1687;49.540;8.574;2023-07-08T16:04:33;50.00;24.60
3348;DHT22;1687;49.540;8.574;2023-07-08T16:07:00;49.40;24.10
3348;DHT22;1687;49.540;8.574;2023-07-08T16:09:26;48.50;24.30
3348;DHT22;1687;49.540;8.574;2023-07-08T16:11:52;46.60;24.00
3348;DHT22;1687;49.540;8.574;2023-07-08T16:14:18;44.70;24.30
3348;DHT22;1687;49.540;8.574;2023-07-08T16:16:44;43.20;24.80
3348;DHT22;1687;49.540;8.574;2023-07-08T16:19:10;42.50;25.40
3348;DHT22;1687;49.540;8.574;2023-07-08T16:21:37;42.00;25.40
3348;DHT22;1687;49.540;8.574;2023-07-08T16:24:03;40.90;25.60
3348;DHT22;1687;49.540;8.574;2023-07-08T16:26:29;40.30;26.10
3348;DHT22;1687;49.540;8.574;2023-07-08T16:28:56;40.10;26.30
3348;DHT22;1687;49.540;8.574;2023-07-08T16:31:24;39.60;26.60
3348;DHT22;1687;49.540;8.574;2023-07-08T16:33:52;39.40;27.00
3348;DHT22;1687;49.540;8.574;2023-07-08T16:36:23;39.20;27.00
3348;DHT22;1687;49.540;8.574;2023-07-08T16:38:50;38.80;27.20
3348;DHT22;1687;49.540;8.574;2023-07-08T16:41:21;38.70;27.40
3348;DHT22;1687;49.540;8.574;2023-07-08T16:43:50;38.30;27.50
3348;DHT22;1687;49.540;8.574;2023-07-08T16:46:18;38.20;27.70
3348;DHT22;1687;49.540;8.574;2023-07-08T16:48:44;38.00;27.90
3348;DHT22;1687;49.540;8.574;2023-07-08T16:51:25;37.90;28.10
3348;DHT22;1687;49.540;8.574;2023-07-08T16:53:58;37.60;28.00
3348;DHT22;1687;49.540;8.574;2023-07-08T16:56:30;37.40;28.30
3348;DHT22;1687;49.540;8.574;2023-07-08T16:58:56;37.30;28.40
3348;DHT22;1687;49.540;8.574;2023-07-08T17:01:23;37.00;28.40
3348;DHT22;1687;49.540;8.574;2023-07-08T17:03:51;36.70;28.70